Time;durP1;ratioP1;P1;durP2;ratioP2;P2;SDS_P1;SDS_P2;PMS_P1;PMS_P2;Temp;Humidity;BMP_temperature;BMP_pressure;BME280_temperature;BME280_humidity;BME280_pressure;Samples;Min_cycle;Max_cycle;Signal;HPM_P1;HPM_P2
2022/06/18 00:01:44;;;;;;;4.10;2.83;;;;;;;;;;4980657;28;20242;-76
2022/06/18 00:04:13;;;;;;;3.70;2.80;;;;;;;;;;4977241;28;20592;-76
2022/06/18 00:06:46;;;;;;;4.23;2.93;;;;;;;;;;4976826;28;20206;-76
2022/06/18 00:09:14;;;;;;;5.20;2.83;;;;;;;;;;4980614;28;20236;-76
2022/06/18 00:14:26;;;;;;;8.73;3.00;;;;;;;;;;4982318;28;20225;-76
2022/06/18 00:16:53;;;;;;;5.80;3.17;;;;;;;;;;4979382;28;20692;-76
2022/06/18 00:19:21;;;;;;;8.57;3.00;;;;;;;;;;4980839;28;20243;-76
2022/06/18 00:21:49;;;;;;;5.30;2.80;;;;;;;;;;4979424;28;20230;-76
2022/06/18 00:24:17;;;;;;;4.07;2.87;;;;;;;;;;4982989;28;20217;-76
2022/06/18 00:26:45;;;;;;;7.17;3.20;;;;;;;;;;4984398;28;20277;-76
2022/06/18 00:29:13;;;;;;;8.30;2.87;;;;;;;;;;4979701;28;20214;-75
2022/06/18 00:31:41;;;;;;;4.87;2.97;;;;;;;;;;4980831;28;20235;-75
2022/06/18 00:34:08;;;;;;;4.40;2.83;;;;;;;;;;4982960;28;20220;-75
2022/06/18 00:36:36;;;;;;;6.07;2.83;;;;;;;;;;4983152;28;20269;-75
2022/06/18 00:39:07;;;;;;;7.60;3.47;;;;;;;;;;4978915;28;20292;-75
2022/06/18 00:41:36;;;;;;;5.27;3.33;;;;;;;;;;4981295;28;20235;-75
2022/06/18 00:44:06;;;;;;;5.90;3.20;;;;;;;;;;4981111;28;20303;-75
2022/06/18 00:46:35;;;;;;;4.97;3.50;;;;;;;;;;4979129;28;20542;-75
2022/06/18 00:49:04;;;;;;;7.90;2.93;;;;;;;;;;4976682;28;20233;-75
2022/06/18 00:51:33;;;;;;;4.73;2.93;;;;;;;;;;4977340;28;20582;-76
2022/06/18 00:54:03;;;;;;;5.40;3.07;;;;;;;;;;4977938;28;20664;-76
2022/06/18 00:56:34;;;;;;;5.83;3.13;;;;;;;;;;4978529;28;20711;-76
2022/06/18 00:59:03;;;;;;;5.73;3.13;;;;;;;;;;4981490;28;20209;-75
2022/06/18 01:01:31;;;;;;;5.70;2.97;;;;;;;;;;4981005;28;20256;-76
2022/06/18 01:03:59;;;;;;;3.57;3.03;;;;;;;;;;4979170;28;20225;-76
2022/06/18 01:06:29;;;;;;;6.50;2.90;;;;;;;;;;4983056;28;20284;-76
2022/06/18 01:09:00;;;;;;;6.53;3.03;;;;;;;;;;4980537;28;20212;-76
2022/06/18 01:11:28;;;;;;;5.50;3.10;;;;;;;;;;4978924;28;20248;-76
2022/06/18 01:13:57;;;;;;;7.23;3.03;;;;;;;;;;4977087;28;20228;-75
2022/06/18 01:16:25;;;;;;;5.73;3.27;;;;;;;;;;4978015;28;20576;-77
2022/06/18 01:18:53;;;;;;;8.03;3.10;;;;;;;;;;4982804;28;20212;-77
2022/06/18 01:21:24;;;;;;;6.57;3.63;;;;;;;;;;4976630;28;20777;-75
2022/06/18 01:23:54;;;;;;;5.37;2.80;;;;;;;;;;4978292;28;20202;-75
2022/06/18 01:26:23;;;;;;;5.67;2.80;;;;;;;;;;4978618;28;20265;-75
2022/06/18 01:28:50;;;;;;;5.30;3.23;;;;;;;;;;4979200;28;20347;-75
2022/06/18 01:31:17;;;;;;;5.43;3.10;;;;;;;;;;4981208;28;20247;-75
2022/06/18 01:33:46;;;;;;;5.23;3.10;;;;;;;;;;4981882;28;20589;-75
2022/06/18 01:36:14;;;;;;;4.27;2.87;;;;;;;;;;4979240;28;20621;-75
2022/06/18 01:38:44;;;;;;;6.87;3.50;;;;;;;;;;4980228;28;20212;-75
2022/06/18 01:44:03;;;;;;;7.33;3.20;;;;;;;;;;4979324;28;20205;-75
2022/06/18 01:46:31;;;;;;;6.20;3.10;;;;;;;;;;4979207;28;20263;-75
2022/06/18 01:48:59;;;;;;;5.77;2.90;;;;;;;;;;4979213;28;20439;-76
2022/06/18 01:51:30;;;;;;;5.37;3.40;;;;;;;;;;4978022;28;20710;-75
2022/06/18 01:54:00;;;;;;;8.77;3.27;;;;;;;;;;4978418;28;20210;-76
2022/06/18 01:56:29;;;;;;;4.53;3.00;;;;;;;;;;4979637;28;20292;-75
2022/06/18 01:58:59;;;;;;;9.00;3.27;;;;;;;;;;4978167;28;20213;-75
2022/06/18 02:01:28;;;;;;;7.23;3.30;;;;;;;;;;4978427;28;20615;-75
2022/06/18 02:03:56;;;;;;;7.60;3.30;;;;;;;;;;4976202;28;20209;-76
2022/06/18 02:06:24;;;;;;;4.80;3.17;;;;;;;;;;4976821;28;20201;-75
2022/06/18 02:08:51;;;;;;;8.53;3.40;;;;;;;;;;4977050;28;20216;-75
2022/06/18 02:11:20;;;;;;;5.17;3.27;;;;;;;;;;4982270;28;20695;-75
2022/06/18 02:13:48;;;;;;;3.67;2.97;;;;;;;;;;4980726;28;20217;-75
2022/06/18 02:16:18;;;;;;;6.93;3.20;;;;;;;;;;4977070;28;20237;-75
2022/06/18 02:18:47;;;;;;;4.27;3.10;;;;;;;;;;4976928;28;20220;-75
2022/06/18 02:21:15;;;;;;;3.47;2.40;;;;;;;;;;4976803;28;20230;-75
2022/06/18 02:23:42;;;;;;;5.40;2.87;;;;;;;;;;4977064;28;20213;-75
2022/06/18 02:26:10;;;;;;;6.20;2.60;;;;;;;;;;4976792;28;20228;-75
2022/06/18 02:28:38;;;;;;;6.03;3.00;;;;;;;;;;4976152;28;20710;-75
2022/06/18 02:31:07;;;;;;;8.70;3.00;;;;;;;;;;4975742;28;20719;-75
2022/06/18 02:33:37;;;;;;;4.43;2.80;;;;;;;;;;4977088;28;20208;-75
2022/06/18 02:36:11;;;;;;;4.53;3.23;;;;;;;;;;4976102;28;20217;-75
2022/06/18 02:38:38;;;;;;;4.33;3.00;;;;;;;;;;4976937;28;20205;-75
2022/06/18 02:41:05;;;;;;;5.23;3.17;;;;;;;;;;4975470;28;20733;-75
2022/06/18 02:43:34;;;;;;;7.07;3.33;;;;;;;;;;4974938;28;20213;-75
2022/06/18 02:46:01;;;;;;;5.43;3.27;;;;;;;;;;4979725;28;20213;-75
2022/06/18 02:48:30;;;;;;;4.50;3.03;;;;;;;;;;4977833;28;20214;-75
2022/06/18 02:50:59;;;;;;;10.07;3.33;;;;;;;;;;4978084;28;20233;-75
2022/06/18 02:53:28;;;;;;;4.47;2.90;;;;;;;;;;4977706;28;20263;-75
2022/06/18 02:55:57;;;;;;;4.23;2.80;;;;;;;;;;4980036;28;20292;-75
2022/06/18 02:58:25;;;;;;;7.03;3.00;;;;;;;;;;4975323;28;20251;-75
2022/06/18 03:00:54;;;;;;;5.57;2.83;;;;;;;;;;4979423;28;20316;-75
2022/06/18 03:03:22;;;;;;;9.37;3.07;;;;;;;;;;4975915;28;20202;-75
2022/06/18 03:05:52;;;;;;;6.30;3.40;;;;;;;;;;4976544;28;20288;-75
2022/06/18 03:08:20;;;;;;;6.93;3.17;;;;;;;;;;4976954;28;20292;-76
2022/06/18 03:13:33;;;;;;;3.77;2.90;;;;;;;;;;4976838;28;20228;-75
2022/06/18 03:16:01;;;;;;;5.57;2.70;;;;;;;;;;4976312;28;20209;-76
2022/06/18 03:18:30;;;;;;;5.30;3.00;;;;;;;;;;4978916;28;20244;-76
2022/06/18 03:21:01;;;;;;;4.90;3.13;;;;;;;;;;4975766;28;20240;-76
2022/06/18 03:23:28;;;;;;;6.60;3.13;;;;;;;;;;4977138;28;20296;-75
2022/06/18 03:25:57;;;;;;;3.77;2.90;;;;;;;;;;4980471;28;20209;-76
2022/06/18 03:28:25;;;;;;;4.07;2.97;;;;;;;;;;4976507;28;20217;-75
2022/06/18 03:30:52;;;;;;;5.07;3.17;;;;;;;;;;4981304;28;20221;-76
2022/06/18 03:33:19;;;;;;;5.33;3.03;;;;;;;;;;4979500;28;20695;-76
2022/06/18 03:35:49;;;;;;;5.87;3.20;;;;;;;;;;4977555;28;20213;-76
2022/06/18 03:38:16;;;;;;;3.17;2.83;;;;;;;;;;4978446;28;20201;-76
2022/06/18 03:40:44;;;;;;;5.53;3.10;;;;;;;;;;4979850;28;20320;-76
2022/06/18 03:43:13;;;;;;;5.87;3.07;;;;;;;;;;4979058;28;20703;-76
2022/06/18 03:45:42;;;;;;;7.93;3.23;;;;;;;;;;4984818;28;20711;-76
2022/06/18 03:48:11;;;;;;;5.50;2.87;;;;;;;;;;4983449;28;20233;-76
2022/06/18 03:50:38;;;;;;;7.67;2.80;;;;;;;;;;4982117;28;20324;-76
2022/06/18 03:53:05;;;;;;;6.10;2.67;;;;;;;;;;4982132;28;20234;-76
2022/06/18 03:55:33;;;;;;;5.13;2.63;;;;;;;;;;4978917;28;20756;-76
2022/06/18 03:58:00;;;;;;;4.80;3.10;;;;;;;;;;4982273;28;20206;-76
2022/06/18 04:00:28;;;;;;;6.63;2.80;;;;;;;;;;4980714;28;20220;-76
2022/06/18 04:02:55;;;;;;;5.50;2.60;;;;;;;;;;4981057;28;20638;-76
2022/06/18 04:05:23;;;;;;;6.03;2.40;;;;;;;;;;4980492;28;20726;-76
2022/06/18 04:07:50;;;;;;;5.37;2.67;;;;;;;;;;4980351;28;20212;-76
2022/06/18 04:10:18;;;;;;;3.90;2.27;;;;;;;;;;4980082;28;20210;-76
2022/06/18 04:12:45;;;;;;;3.67;2.50;;;;;;;;;;4981630;28;20268;-76
2022/06/18 04:15:13;;;;;;;4.70;2.47;;;;;;;;;;4979329;28;20660;-76
2022/06/18 04:17:42;;;;;;;5.63;2.33;;;;;;;;;;4979206;28;20216;-77
2022/06/18 04:20:16;;;;;;;7.80;2.50;;;;;;;;;;4981108;28;20731;-77
2022/06/18 04:22:43;;;;;;;6.53;2.87;;;;;;;;;;4982469;28;20580;-77
2022/06/18 04:25:10;;;;;;;4.73;2.40;;;;;;;;;;4981593;28;20284;-77
2022/06/18 04:27:38;;;;;;;4.23;2.90;;;;;;;;;;4981790;28;20221;-77
2022/06/18 04:30:05;;;;;;;4.40;2.47;;;;;;;;;;4983750;28;20214;-77
2022/06/18 04:32:35;;;;;;;5.43;2.40;;;;;;;;;;4984625;28;20239;-77
2022/06/18 04:35:04;;;;;;;3.47;2.50;;;;;;;;;;4981490;28;20683;-77
2022/06/18 04:37:31;;;;;;;4.10;2.47;;;;;;;;;;4984468;28;20575;-77
2022/06/18 04:39:58;;;;;;;3.73;2.60;;;;;;;;;;4979964;28;20217;-77
2022/06/18 04:42:26;;;;;;;5.13;2.37;;;;;;;;;;4979339;28;20217;-77
2022/06/18 04:44:53;;;;;;;3.93;2.30;;;;;;;;;;4980230;28;20300;-76
2022/06/18 04:47:20;;;;;;;3.60;2.60;;;;;;;;;;4979140;28;20209;-77
2022/06/18 04:49:47;;;;;;;3.67;2.40;;;;;;;;;;4979968;28;20209;-77
2022/06/18 04:52:16;;;;;;;5.03;2.47;;;;;;;;;;4978852;28;20233;-77
2022/06/18 04:54:43;;;;;;;3.70;2.43;;;;;;;;;;4977189;28;20213;-77
2022/06/18 04:57:11;;;;;;;4.47;2.57;;;;;;;;;;4980496;28;20213;-77
2022/06/18 04:59:38;;;;;;;6.30;2.33;;;;;;;;;;4981295;28;20209;-77
2022/06/18 05:02:07;;;;;;;6.83;2.43;;;;;;;;;;4977678;28;20244;-77
2022/06/18 05:04:34;;;;;;;4.73;2.30;;;;;;;;;;4979041;28;20232;-77
2022/06/18 05:07:01;;;;;;;3.00;2.20;;;;;;;;;;4980017;28;20296;-77
2022/06/18 05:09:30;;;;;;;3.70;2.30;;;;;;;;;;4982821;28;20211;-77
2022/06/18 05:11:57;;;;;;;3.10;2.30;;;;;;;;;;4983529;28;20316;-77
2022/06/18 05:14:24;;;;;;;3.47;2.20;;;;;;;;;;4981982;28;20210;-77
2022/06/18 05:16:52;;;;;;;2.63;2.10;;;;;;;;;;4984392;28;20207;-77
2022/06/18 05:19:23;;;;;;;6.83;2.10;;;;;;;;;;4982643;28;20213;-75
2022/06/18 05:21:50;;;;;;;5.90;2.30;;;;;;;;;;4981326;28;20232;-77
2022/06/18 05:24:17;;;;;;;4.20;2.20;;;;;;;;;;4985578;28;20220;-77
2022/06/18 05:26:48;;;;;;;4.40;2.33;;;;;;;;;;4978638;28;20257;-77
2022/06/18 05:29:16;;;;;;;4.63;2.27;;;;;;;;;;4979694;28;20213;-77
2022/06/18 05:31:43;;;;;;;4.07;2.37;;;;;;;;;;4985277;28;20232;-77
2022/06/18 05:34:10;;;;;;;2.77;2.07;;;;;;;;;;4979191;28;20308;-77
2022/06/18 05:36:38;;;;;;;4.43;2.10;;;;;;;;;;4981605;28;20211;-77
2022/06/18 05:39:06;;;;;;;2.97;2.10;;;;;;;;;;4984269;28;20201;-77
2022/06/18 05:41:33;;;;;;;3.63;1.97;;;;;;;;;;4985898;28;20255;-77
2022/06/18 05:44:03;;;;;;;4.13;2.13;;;;;;;;;;4982479;28;20291;-77
2022/06/18 05:46:31;;;;;;;5.17;2.10;;;;;;;;;;4984114;28;20220;-77
2022/06/18 05:48:58;;;;;;;3.60;2.27;;;;;;;;;;4979674;28;20205;-77
2022/06/18 05:51:26;;;;;;;5.60;2.20;;;;;;;;;;4978796;28;20233;-76
2022/06/18 05:53:53;;;;;;;2.60;1.83;;;;;;;;;;4982239;28;20693;-78
2022/06/18 05:56:20;;;;;;;3.30;1.80;;;;;;;;;;4983718;28;20301;-77
2022/06/18 05:58:47;;;;;;;2.97;2.20;;;;;;;;;;4982686;28;20237;-75
2022/06/18 06:01:16;;;;;;;4.63;2.40;;;;;;;;;;4980994;28;20244;-77
2022/06/18 06:03:43;;;;;;;4.37;2.20;;;;;;;;;;4977984;28;20206;-75
2022/06/18 06:06:11;;;;;;;7.07;2.43;;;;;;;;;;4984204;28;20218;-76
2022/06/18 06:08:38;;;;;;;5.10;2.40;;;;;;;;;;4984600;28;20213;-76
2022/06/18 06:13:50;;;;;;;3.73;2.10;;;;;;;;;;4977314;28;20503;-76
2022/06/18 06:16:20;;;;;;;5.33;2.23;;;;;;;;;;4975550;28;20224;-76
2022/06/18 06:18:47;;;;;;;4.33;2.43;;;;;;;;;;4978622;28;20203;-76
2022/06/18 06:21:14;;;;;;;4.10;2.10;;;;;;;;;;4976037;28;20233;-77
2022/06/18 06:23:41;;;;;;;3.17;2.00;;;;;;;;;;4978946;28;20204;-77
2022/06/18 06:26:14;;;;;;;4.43;2.10;;;;;;;;;;4979756;28;20213;-77
2022/06/18 06:28:43;;;;;;;6.23;2.20;;;;;;;;;;4975338;28;20728;-77
2022/06/18 06:31:10;;;;;;;3.70;2.00;;;;;;;;;;4976607;28;20276;-77
2022/06/18 06:33:39;;;;;;;6.47;1.97;;;;;;;;;;4977820;28;20231;-76
2022/06/18 06:36:07;;;;;;;3.93;2.43;;;;;;;;;;4980423;28;20642;-76
2022/06/18 06:38:37;;;;;;;5.40;2.20;;;;;;;;;;4977836;28;20237;-76
2022/06/18 06:41:05;;;;;;;4.83;2.60;;;;;;;;;;4975858;28;20244;-76
2022/06/18 06:43:33;;;;;;;5.37;1.70;;;;;;;;;;4976496;28;20213;-76
2022/06/18 06:46:00;;;;;;;3.83;1.97;;;;;;;;;;4976080;28;20256;-76
2022/06/18 06:48:27;;;;;;;3.73;2.17;;;;;;;;;;4976901;28;20209;-76
2022/06/18 06:50:56;;;;;;;3.93;2.10;;;;;;;;;;4975195;28;20633;-75
2022/06/18 06:53:23;;;;;;;3.60;1.70;;;;;;;;;;4976680;28;20272;-76
2022/06/18 06:58:35;;;;;;;4.70;1.87;;;;;;;;;;4976971;28;20260;-75
2022/06/18 07:01:03;;;;;;;7.87;2.10;;;;;;;;;;4976947;28;20261;-76
2022/06/18 07:03:31;;;;;;;3.83;1.83;;;;;;;;;;4980560;28;20568;-76
2022/06/18 07:06:01;;;;;;;10.37;2.00;;;;;;;;;;4976439;28;20206;-77
2022/06/18 07:08:28;;;;;;;4.07;2.00;;;;;;;;;;4978056;28;20220;-76
2022/06/18 07:10:55;;;;;;;5.13;1.85;;;;;;;;;;4972259;28;20264;-75
2022/06/18 07:13:23;;;;;;;7.05;1.90;;;;;;;;;;4978019;28;20228;-77
2022/06/18 07:15:50;;;;;;;6.93;2.05;;;;;;;;;;4975340;28;20224;-76
2022/06/18 07:18:19;;;;;;;5.88;1.70;;;;;;;;;;4974639;28;20206;-76
2022/06/18 07:20:46;;;;;;;3.92;2.00;;;;;;;;;;4974420;28;20230;-76
2022/06/18 07:23:14;;;;;;;4.25;1.83;;;;;;;;;;4978416;28;20218;-76
2022/06/18 07:25:42;;;;;;;4.03;1.75;;;;;;;;;;4975870;28;20213;-76
2022/06/18 07:28:09;;;;;;;4.00;1.77;;;;;;;;;;4973438;28;20301;-76
2022/06/18 07:30:37;;;;;;;4.20;1.80;;;;;;;;;;4977119;28;20838;-75
2022/06/18 07:33:05;;;;;;;2.45;1.55;;;;;;;;;;4974748;28;20327;-75
2022/06/18 07:35:34;;;;;;;3.35;1.63;;;;;;;;;;4975730;28;20657;-77
2022/06/18 07:38:01;;;;;;;7.10;1.60;;;;;;;;;;4974310;28;20224;-76
2022/06/18 07:40:31;;;;;;;5.78;1.75;;;;;;;;;;4976217;28;20207;-76
2022/06/18 07:42:59;;;;;;;2.72;1.58;;;;;;;;;;4974759;28;20202;-75
2022/06/18 07:45:26;;;;;;;3.25;1.30;;;;;;;;;;4973938;28;20242;-75
2022/06/18 07:47:54;;;;;;;2.85;1.38;;;;;;;;;;4976297;28;20214;-76
2022/06/18 07:50:22;;;;;;;4.18;1.60;;;;;;;;;;4971366;28;20208;-76
2022/06/18 07:52:50;;;;;;;3.67;1.75;;;;;;;;;;4974959;28;20229;-76
2022/06/18 07:55:18;;;;;;;2.63;1.40;;;;;;;;;;4973540;28;20295;-76
2022/06/18 07:57:47;;;;;;;4.57;1.70;;;;;;;;;;4976055;28;20307;-76
2022/06/18 08:00:16;;;;;;;3.83;1.95;;;;;;;;;;4974439;28;20216;-75
2022/06/18 08:02:44;;;;;;;3.58;1.60;;;;;;;;;;4974562;28;20201;-75
2022/06/18 08:05:12;;;;;;;4.32;1.70;;;;;;;;;;4972737;28;20711;-75
2022/06/18 08:07:39;;;;;;;2.17;1.60;;;;;;;;;;4974668;28;20219;-75
2022/06/18 08:10:07;;;;;;;5.22;1.65;;;;;;;;;;4971921;28;20568;-75
2022/06/18 08:12:35;;;;;;;2.50;1.40;;;;;;;;;;4975421;28;20315;-76
2022/06/18 08:15:03;;;;;;;6.88;1.70;;;;;;;;;;4973573;28;20217;-76
2022/06/18 08:17:30;;;;;;;3.90;1.70;;;;;;;;;;4971689;28;20675;-76
2022/06/18 08:19:58;;;;;;;3.05;1.38;;;;;;;;;;4972876;28;20239;-75
2022/06/18 08:22:25;;;;;;;4.22;1.60;;;;;;;;;;4973418;28;20304;-75
2022/06/18 08:24:53;;;;;;;3.47;1.52;;;;;;;;;;4974777;28;20305;-76
2022/06/18 08:27:21;;;;;;;4.97;1.83;;;;;;;;;;4973067;28;20240;-76
2022/06/18 08:29:48;;;;;;;3.15;1.77;;;;;;;;;;4974113;28;20676;-75
2022/06/18 08:32:17;;;;;;;3.58;1.77;;;;;;;;;;4975933;28;20595;-75
2022/06/18 08:34:44;;;;;;;3.42;1.83;;;;;;;;;;4977611;28;20287;-76
2022/06/18 08:37:12;;;;;;;2.60;1.77;;;;;;;;;;4977067;28;20213;-76
2022/06/18 08:39:39;;;;;;;4.95;2.10;;;;;;;;;;4977978;28;20205;-76
2022/06/18 08:42:21;;;;;;;5.00;1.67;;;;;;;;;;4977928;28;20364;-76
2022/06/18 08:44:55;;;;;;;4.45;1.55;;;;;;;;;;4975264;28;20210;-76
2022/06/18 08:47:35;;;;;;;8.35;1.88;;;;;;;;;;4977118;28;20444;-76
2022/06/18 08:50:19;;;;;;;5.47;1.98;;;;;;;;;;4977153;28;20210;-76
2022/06/18 08:52:57;;;;;;;3.63;1.90;;;;;;;;;;4978026;28;20284;-75
2022/06/18 08:55:28;;;;;;;2.35;1.63;;;;;;;;;;4979929;28;20864;-75
2022/06/18 08:58:00;;;;;;;3.40;2.10;;;;;;;;;;4975391;28;20205;-75
2022/06/18 09:00:30;;;;;;;3.50;2.00;;;;;;;;;;4977460;28;20213;-75
2022/06/18 09:03:00;;;;;;;4.33;2.00;;;;;;;;;;4973716;28;20206;-74
2022/06/18 09:05:35;;;;;;;4.90;2.73;;;;;;;;;;4974804;28;20240;-75
2022/06/18 09:08:17;;;;;;;5.27;2.40;;;;;;;;;;4978231;28;20213;-74
2022/06/18 09:10:54;;;;;;;11.77;2.40;;;;;;;;;;4974509;28;20312;-74
2022/06/18 09:13:23;;;;;;;7.30;2.40;;;;;;;;;;4977583;28;20628;-75
2022/06/18 09:15:54;;;;;;;8.63;2.40;;;;;;;;;;4974961;28;20220;-75
2022/06/18 09:18:24;;;;;;;5.90;2.60;;;;;;;;;;4974576;28;20205;-74
2022/06/18 09:20:53;;;;;;;3.40;1.97;;;;;;;;;;4977615;28;20232;-76
2022/06/18 09:23:24;;;;;;;5.60;2.50;;;;;;;;;;4975851;28;20202;-75
2022/06/18 09:25:52;;;;;;;3.40;2.43;;;;;;;;;;4979186;28;20306;-75
2022/06/18 09:28:23;;;;;;;8.17;2.70;;;;;;;;;;4975769;28;20263;-75
2022/06/18 09:30:52;;;;;;;11.30;2.37;;;;;;;;;;4975831;28;20238;-76
2022/06/18 09:33:22;;;;;;;14.33;2.67;;;;;;;;;;4978242;28;20312;-75
2022/06/18 09:35:52;;;;;;;14.70;2.73;;;;;;;;;;4974154;28;20232;-75
2022/06/18 09:38:21;;;;;;;10.03;2.37;;;;;;;;;;4976530;28;20214;-76
2022/06/18 09:40:50;;;;;;;7.50;2.07;;;;;;;;;;4974357;28;20230;-75
2022/06/18 09:43:22;;;;;;;9.23;2.57;;;;;;;;;;4974321;28;20213;-76
2022/06/18 09:45:51;;;;;;;15.57;2.40;;;;;;;;;;4975502;28;20316;-75
2022/06/18 09:48:18;;;;;;;8.00;2.47;;;;;;;;;;4976788;28;20212;-76
2022/06/18 09:50:48;;;;;;;20.90;3.07;;;;;;;;;;4976371;28;20225;-75
2022/06/18 09:53:19;;;;;;;11.63;2.80;;;;;;;;;;4977839;28;20229;-76
2022/06/18 09:55:48;;;;;;;12.03;2.60;;;;;;;;;;4974189;28;20206;-76
2022/06/18 09:58:17;;;;;;;11.60;2.30;;;;;;;;;;4974972;28;20209;-75
2022/06/18 10:00:45;;;;;;;7.23;2.40;;;;;;;;;;4976224;28;20773;-76
2022/06/18 10:06:52;;;;;;;11.93;2.27;;;;;;;;;;4978851;28;20215;-77
2022/06/18 10:08:50;;;;;;;9.33;2.20;;;;;;;;;;4975393;28;20207;-76
2022/06/18 10:11:18;;;;;;;8.93;2.43;;;;;;;;;;4976847;28;20300;-76
2022/06/18 10:13:48;;;;;;;16.40;3.10;;;;;;;;;;4970925;28;20252;-76
2022/06/18 10:16:21;;;;;;;8.83;2.53;;;;;;;;;;4976619;28;20205;-76
2022/06/18 10:18:53;;;;;;;12.63;2.53;;;;;;;;;;4975433;28;20593;-77
2022/06/18 10:21:23;;;;;;;12.53;2.60;;;;;;;;;;4973427;28;20221;-76
2022/06/18 10:23:55;;;;;;;13.37;2.70;;;;;;;;;;4978198;28;20213;-76
2022/06/18 10:26:30;;;;;;;14.43;2.40;;;;;;;;;;4975366;28;20325;-76
2022/06/18 10:29:02;;;;;;;8.68;2.60;;;;;;;;;;4976321;28;20205;-76
2022/06/18 10:31:35;;;;;;;13.60;2.30;;;;;;;;;;4975604;28;20312;-77
2022/06/18 10:34:05;;;;;;;7.90;2.30;;;;;;;;;;4976517;28;20222;-75
2022/06/18 10:36:36;;;;;;;8.13;2.70;;;;;;;;;;4977101;28;20656;-75
2022/06/18 10:39:18;;;;;;;16.85;2.80;;;;;;;;;;4976190;28;20206;-75
2022/06/18 10:41:53;;;;;;;10.95;2.50;;;;;;;;;;4974095;28;20232;-76
2022/06/18 10:44:25;;;;;;;19.23;2.60;;;;;;;;;;4978311;28;20232;-76
2022/06/18 10:47:00;;;;;;;13.63;2.72;;;;;;;;;;4971339;28;20210;-76
2022/06/18 10:49:28;;;;;;;9.37;2.50;;;;;;;;;;4974721;28;20225;-76
2022/06/18 10:51:55;;;;;;;13.40;3.17;;;;;;;;;;4973610;28;20229;-76
2022/06/18 10:54:30;;;;;;;19.83;8.23;;;;;;;;;;4975594;28;20225;-75
2022/06/18 10:56:58;;;;;;;12.60;3.00;;;;;;;;;;4972722;28;20212;-75
2022/06/18 10:59:29;;;;;;;18.38;2.75;;;;;;;;;;4973732;28;20209;-75
2022/06/18 11:01:56;;;;;;;9.35;2.90;;;;;;;;;;4974193;28;20245;-75
2022/06/18 11:04:25;;;;;;;12.57;3.60;;;;;;;;;;4973779;28;20213;-76
2022/06/18 11:06:56;;;;;;;7.70;2.70;;;;;;;;;;4973146;28;20210;-75
2022/06/18 11:09:24;;;;;;;9.93;2.60;;;;;;;;;;4975917;28;20739;-77
2022/06/18 11:11:56;;;;;;;8.30;2.42;;;;;;;;;;4973864;28;20711;-75
2022/06/18 11:14:24;;;;;;;10.57;2.58;;;;;;;;;;4968830;28;20805;-75
2022/06/18 11:16:54;;;;;;;15.27;2.65;;;;;;;;;;4971517;28;20206;-75
2022/06/18 11:19:27;;;;;;;15.18;2.42;;;;;;;;;;4972392;28;20231;-76
2022/06/18 11:21:55;;;;;;;12.13;2.55;;;;;;;;;;4970410;28;20316;-76
2022/06/18 11:24:25;;;;;;;10.30;2.50;;;;;;;;;;4973871;28;20211;-75
2022/06/18 11:26:55;;;;;;;15.53;2.63;;;;;;;;;;4974748;28;20205;-76
2022/06/18 11:29:28;;;;;;;8.40;2.40;;;;;;;;;;4971381;28;20303;-76
2022/06/18 11:31:56;;;;;;;10.75;2.65;;;;;;;;;;4968726;28;20232;-76
2022/06/18 11:34:25;;;;;;;13.55;2.50;;;;;;;;;;4969564;28;20228;-76
2022/06/18 11:36:53;;;;;;;10.65;2.58;;;;;;;;;;4973740;28;20212;-76
2022/06/18 11:39:33;;;;;;;15.65;2.67;;;;;;;;;;4970604;28;20225;-76
2022/06/18 11:42:03;;;;;;;16.33;2.67;;;;;;;;;;4972168;28;20755;-76
2022/06/18 11:44:34;;;;;;;11.13;2.50;;;;;;;;;;4974370;28;20206;-75
2022/06/18 11:47:05;;;;;;;12.40;2.78;;;;;;;;;;4972208;28;20206;-76
2022/06/18 11:49:35;;;;;;;7.57;2.57;;;;;;;;;;4975161;28;20289;-76
2022/06/18 11:52:04;;;;;;;16.40;2.58;;;;;;;;;;4970735;28;20707;-76
2022/06/18 11:54:35;;;;;;;9.13;2.40;;;;;;;;;;4973238;28;20218;-76
2022/06/18 11:57:06;;;;;;;11.35;2.65;;;;;;;;;;4974724;28;20312;-76
2022/06/18 11:59:38;;;;;;;10.38;2.80;;;;;;;;;;4974723;28;20293;-76
2022/06/18 12:02:06;;;;;;;12.88;2.53;;;;;;;;;;4972367;28;20323;-76
2022/06/18 12:04:36;;;;;;;16.25;2.80;;;;;;;;;;4973305;28;20276;-76
2022/06/18 12:07:06;;;;;;;17.70;3.00;;;;;;;;;;4975740;28;20296;-76
2022/06/18 12:09:33;;;;;;;10.65;3.00;;;;;;;;;;4974066;28;20292;-76
2022/06/18 12:12:12;;;;;;;10.43;2.40;;;;;;;;;;4972587;28;20309;-75
2022/06/18 12:14:46;;;;;;;9.80;2.63;;;;;;;;;;4977172;28;20260;-76
2022/06/18 12:17:16;;;;;;;11.77;3.00;;;;;;;;;;4976665;28;20225;-75
2022/06/18 12:19:45;;;;;;;14.43;2.83;;;;;;;;;;4973331;28;20220;-76
2022/06/18 12:22:16;;;;;;;15.73;2.80;;;;;;;;;;4973996;28;20325;-76
2022/06/18 12:24:48;;;;;;;13.00;2.60;;;;;;;;;;4974876;28;20206;-76
2022/06/18 12:27:17;;;;;;;18.48;2.75;;;;;;;;;;4977240;28;20316;-76
2022/06/18 12:29:55;;;;;;;13.70;2.90;;;;;;;;;;4975078;28;20291;-77
2022/06/18 12:32:25;;;;;;;6.13;2.10;;;;;;;;;;4974289;28;20288;-76
2022/06/18 12:34:59;;;;;;;7.13;2.45;;;;;;;;;;4975695;28;20225;-77
2022/06/18 12:37:34;;;;;;;14.88;2.70;;;;;;;;;;4978392;28;20574;-76
2022/06/18 12:40:10;;;;;;;15.18;3.20;;;;;;;;;;4976363;28;20232;-76
2022/06/18 12:42:41;;;;;;;7.82;2.60;;;;;;;;;;4971307;28;20205;-75
2022/06/18 12:45:12;;;;;;;11.63;2.67;;;;;;;;;;4971689;28;20656;-75
2022/06/18 12:47:46;;;;;;;17.80;2.40;;;;;;;;;;4977424;28;20232;-76
2022/06/18 12:50:17;;;;;;;17.30;2.85;;;;;;;;;;4973465;28;20213;-76
2022/06/18 12:52:49;;;;;;;16.67;3.00;;;;;;;;;;4973576;28;20207;-76
2022/06/18 12:55:28;;;;;;;13.35;2.58;;;;;;;;;;4976334;28;20225;-76
2022/06/18 12:58:01;;;;;;;9.60;2.42;;;;;;;;;;4973225;28;20256;-76
2022/06/18 13:00:32;;;;;;;12.32;2.63;;;;;;;;;;4979546;28;20215;-77
2022/06/18 13:03:15;;;;;;;12.18;2.78;;;;;;;;;;4974240;28;20209;-77
2022/06/18 13:05:46;;;;;;;12.77;2.72;;;;;;;;;;4972046;28;20263;-76
2022/06/18 13:08:21;;;;;;;14.60;2.95;;;;;;;;;;4972255;28;20217;-76
2022/06/18 13:10:50;;;;;;;18.85;2.72;;;;;;;;;;4971852;28;20276;-77
2022/06/18 13:13:26;;;;;;;16.90;2.75;;;;;;;;;;4972654;28;20615;-77
2022/06/18 13:15:59;;;;;;;15.80;2.80;;;;;;;;;;4980148;28;20273;-76
2022/06/18 13:18:29;;;;;;;13.52;2.60;;;;;;;;;;4974136;28;20746;-76
2022/06/18 13:20:59;;;;;;;13.73;3.08;;;;;;;;;;4979323;28;20709;-75
2022/06/18 13:29:02;;;;;;;14.40;2.78;;;;;;;;;;4982833;28;20244;-76
2022/06/18 13:31:35;;;;;;;22.85;2.75;;;;;;;;;;4974830;28;20233;-76
2022/06/18 13:34:06;;;;;;;9.55;2.85;;;;;;;;;;4974463;28;20598;-76
2022/06/18 13:36:38;;;;;;;18.92;2.90;;;;;;;;;;4977803;28;20289;-76
2022/06/18 13:39:11;;;;;;;16.20;3.22;;;;;;;;;;4981086;28;20220;-76
2022/06/18 13:41:41;;;;;;;12.90;2.78;;;;;;;;;;4978647;28;20276;-76
2022/06/18 13:44:19;;;;;;;17.27;3.05;;;;;;;;;;4975919;28;20209;-76
2022/06/18 13:46:55;;;;;;;14.70;2.78;;;;;;;;;;4977121;28;20230;-76
2022/06/18 13:49:27;;;;;;;13.00;3.03;;;;;;;;;;4979798;28;20233;-76
2022/06/18 13:51:59;;;;;;;10.93;2.72;;;;;;;;;;4979585;28;20256;-76
2022/06/18 13:54:28;;;;;;;13.43;2.53;;;;;;;;;;4979105;28;20276;-76
2022/06/18 13:56:59;;;;;;;9.93;2.58;;;;;;;;;;4984127;28;20217;-76
2022/06/18 13:59:26;;;;;;;13.63;2.97;;;;;;;;;;4978182;28;20629;-76
2022/06/18 14:01:56;;;;;;;11.80;2.72;;;;;;;;;;4976083;28;20329;-75
2022/06/18 14:04:28;;;;;;;9.48;2.60;;;;;;;;;;4978009;28;20224;-75
2022/06/18 14:06:57;;;;;;;13.48;2.72;;;;;;;;;;4977682;28;20214;-76
2022/06/18 14:09:26;;;;;;;12.07;2.70;;;;;;;;;;4980637;28;20703;-76
2022/06/18 14:11:57;;;;;;;12.07;2.63;;;;;;;;;;4981773;28;20320;-75
2022/06/18 14:14:28;;;;;;;18.27;2.72;;;;;;;;;;4976229;28;20210;-76
2022/06/18 14:17:02;;;;;;;16.73;2.78;;;;;;;;;;4980974;28;20215;-76
2022/06/18 14:19:31;;;;;;;12.70;2.72;;;;;;;;;;4976233;28;20712;-75
2022/06/18 14:22:02;;;;;;;8.00;3.08;;;;;;;;;;4979009;28;20322;-75
2022/06/18 14:24:38;;;;;;;8.10;2.30;;;;;;;;;;4975746;28;20301;-76
2022/06/18 14:27:06;;;;;;;14.68;2.83;;;;;;;;;;4975411;28;20211;-76
2022/06/18 14:29:39;;;;;;;18.95;2.97;;;;;;;;;;4976737;28;20739;-76
2022/06/18 14:32:12;;;;;;;12.35;2.90;;;;;;;;;;4980281;28;20390;-76
2022/06/18 14:34:46;;;;;;;20.05;3.20;;;;;;;;;;4978608;28;20233;-75
2022/06/18 14:37:14;;;;;;;13.55;2.80;;;;;;;;;;4981999;28;20239;-76
2022/06/18 14:39:45;;;;;;;8.63;2.42;;;;;;;;;;4977284;28;20209;-76
2022/06/18 14:42:17;;;;;;;12.65;3.03;;;;;;;;;;4975837;28;20230;-75
2022/06/18 14:44:51;;;;;;;13.40;3.10;;;;;;;;;;4979964;28;20210;-75
2022/06/18 14:47:32;;;;;;;16.13;2.90;;;;;;;;;;4978546;28;20292;-75
2022/06/18 14:50:09;;;;;;;15.40;2.90;;;;;;;;;;4976802;28;20210;-75
2022/06/18 14:52:42;;;;;;;13.48;3.08;;;;;;;;;;4976112;28;20597;-75
2022/06/18 14:55:25;;;;;;;12.52;2.53;;;;;;;;;;4976466;28;20236;-75
2022/06/18 14:58:02;;;;;;;12.70;3.08;;;;;;;;;;4977351;28;20269;-75
2022/06/18 15:00:43;;;;;;;8.30;3.00;;;;;;;;;;4976471;28;20502;-75
2022/06/18 15:03:16;;;;;;;16.20;3.00;;;;;;;;;;4977929;28;20226;-75
2022/06/18 15:05:43;;;;;;;10.02;2.70;;;;;;;;;;4973983;28;20669;-76
2022/06/18 15:08:11;;;;;;;8.65;2.60;;;;;;;;;;4977811;28;20216;-76
2022/06/18 15:10:44;;;;;;;9.38;2.97;;;;;;;;;;4975857;28;20321;-75
2022/06/18 15:13:12;;;;;;;11.43;2.92;;;;;;;;;;4977237;28;20213;-76
2022/06/18 15:15:51;;;;;;;13.73;3.25;;;;;;;;;;4972545;28;20235;-75